createdAt,value
2023-03-31T00:00:29.686Z,99123.19
2023-03-31T00:02:57.759Z,99115.47
2023-03-31T00:05:26.323Z,99113.72
2023-03-31T00:07:58.170Z,99121.44
2023-03-31T00:10:26.103Z,99118.63
2023-03-31T00:12:53.979Z,99117.84
2023-03-31T00:15:21.518Z,99107.78
2023-03-31T00:17:49.594Z,99109.63
2023-03-31T00:20:17.461Z,99107.41
2023-03-31T00:22:45.551Z,99097.81
2023-03-31T00:25:14.815Z,99097.62
2023-03-31T00:27:43.745Z,99092.00
2023-03-31T00:30:13.192Z,99091.66
2023-03-31T00:32:41.670Z,99090.56
2023-03-31T00:35:09.578Z,99086.94
2023-03-31T00:37:37.351Z,99076.72
2023-03-31T00:40:05.793Z,99080.63
2023-03-31T00:42:33.629Z,99084.41
2023-03-31T00:45:16.546Z,99077.25
2023-03-31T00:47:50.564Z,99077.22
2023-03-31T00:50:31.035Z,99076.59
2023-03-31T00:53:11.899Z,99073.03
2023-03-31T00:55:47.835Z,99072.59
2023-03-31T00:58:16.317Z,99072.06
2023-03-31T01:00:44.471Z,99075.12
2023-03-31T01:03:12.345Z,99067.31
2023-03-31T01:05:46.708Z,99071.50
2023-03-31T01:08:15.032Z,99073.72
2023-03-31T01:10:46.733Z,99069.75
2023-03-31T01:13:15.738Z,99080.53
2023-03-31T01:15:43.891Z,99078.87
2023-03-31T01:18:13.512Z,99069.34
2023-03-31T01:21:25.952Z,99064.63
2023-03-31T01:24:24.174Z,99061.00
2023-03-31T01:27:36.753Z,99063.06
2023-03-31T01:30:24.503Z,99061.53
2023-03-31T01:32:57.873Z,99057.75
2023-03-31T01:35:33.349Z,99057.19
2023-03-31T01:38:11.274Z,99066.03
2023-03-31T01:40:51.365Z,99067.72
2023-03-31T01:43:37.757Z,99074.88
2023-03-31T01:46:26.240Z,99068.56
2023-03-31T01:49:31.782Z,99060.22
2023-03-31T01:52:19.993Z,99062.53
2023-03-31T01:54:56.027Z,99052.81
2023-03-31T01:57:27.030Z,99062.13
2023-03-31T02:00:10.894Z,99055.16
2023-03-31T02:02:50.280Z,99048.53
2023-03-31T02:05:20.771Z,99057.38
2023-03-31T02:08:11.155Z,99048.37
2023-03-31T02:10:41.216Z,99052.00
2023-03-31T02:13:11.383Z,99053.69
2023-03-31T02:15:44.763Z,99049.22
2023-03-31T02:18:16.284Z,99044.66
2023-03-31T02:20:46.981Z,99045.56
2023-03-31T02:23:19.228Z,99050.91
2023-03-31T02:25:58.091Z,99051.34
2023-03-31T02:28:27.653Z,99050.56
2023-03-31T02:31:18.510Z,99053.72
2023-03-31T02:33:47.349Z,99051.16
2023-03-31T02:36:15.357Z,99043.94
2023-03-31T02:38:47.336Z,99042.41
2023-03-31T02:41:15.530Z,99043.94
2023-03-31T02:43:43.217Z,99038.75
2023-03-31T02:46:10.906Z,99043.16
2023-03-31T02:48:42.738Z,99031.63
2023-03-31T02:51:29.176Z,99034.94
2023-03-31T02:54:20.242Z,99035.22
2023-03-31T02:57:15.086Z,99025.47
2023-03-31T02:59:48.918Z,99024.19
2023-03-31T03:02:28.585Z,99022.38
2023-03-31T03:05:24.383Z,99024.50
2023-03-31T03:08:22.936Z,99024.50
2023-03-31T03:11:08.259Z,99030.72
2023-03-31T03:14:14.416Z,99032.59
2023-03-31T03:16:48.892Z,99030.00
2023-03-31T03:19:21.340Z,99029.31
2023-03-31T03:21:49.763Z,99022.12
2023-03-31T03:24:18.015Z,99020.72
2023-03-31T03:26:46.021Z,99022.94
2023-03-31T03:29:14.309Z,99021.81
2023-03-31T03:31:42.918Z,99024.56
2023-03-31T03:34:10.635Z,99021.34
2023-03-31T03:36:38.994Z,99025.41
2023-03-31T03:39:07.880Z,99025.59
2023-03-31T03:41:35.744Z,99029.56
2023-03-31T03:44:03.683Z,99027.38
2023-03-31T03:46:31.472Z,99024.03
2023-03-31T03:48:59.231Z,99025.91
2023-03-31T03:51:27.148Z,99033.03
2023-03-31T03:53:54.802Z,99033.34
2023-03-31T03:56:22.476Z,99028.72
2023-03-31T03:58:50.726Z,99035.06
2023-03-31T04:01:18.328Z,99033.31
2023-03-31T04:03:46.499Z,99047.59
2023-03-31T04:06:14.140Z,99049.13
2023-03-31T04:08:41.787Z,99053.00
2023-03-31T04:11:19.188Z,99055.87
2023-03-31T04:13:47.375Z,99049.16
2023-03-31T04:16:15.372Z,99050.63
2023-03-31T04:18:43.166Z,99051.50
2023-03-31T04:21:15.253Z,99046.06
2023-03-31T04:23:43.404Z,99041.97
2023-03-31T04:26:11.850Z,99029.28
2023-03-31T04:28:39.624Z,99033.06
2023-03-31T04:31:07.507Z,99033.19
2023-03-31T04:33:35.504Z,99028.06
2023-03-31T04:36:03.435Z,99026.00
2023-03-31T04:38:31.613Z,99033.97
2023-03-31T04:41:07.296Z,99030.19
2023-03-31T04:43:35.715Z,99031.78
2023-03-31T04:46:03.654Z,99029.56
2023-03-31T04:48:31.440Z,99010.06
2023-03-31T04:50:59.810Z,99014.81
2023-03-31T04:53:27.934Z,99020.78
2023-03-31T04:55:55.704Z,99014.41
2023-03-31T04:58:23.782Z,99012.84
2023-03-31T05:00:52.404Z,99015.81
2023-03-31T05:03:20.741Z,99022.94
2023-03-31T05:05:49.257Z,99022.25
2023-03-31T05:08:17.315Z,99018.00
2023-03-31T05:10:45.139Z,99028.19
2023-03-31T05:13:13.022Z,99025.31
2023-03-31T05:15:40.636Z,99035.16
2023-03-31T05:18:08.280Z,99033.03
2023-03-31T05:20:36.246Z,99028.31
2023-03-31T05:23:03.897Z,99025.19
2023-03-31T05:25:31.423Z,99020.06
2023-03-31T05:28:00.301Z,99018.78
2023-03-31T05:30:28.480Z,99017.09
2023-03-31T05:32:56.363Z,99011.25
2023-03-31T05:35:25.597Z,99006.88
2023-03-31T05:37:53.463Z,99011.13
2023-03-31T05:40:21.155Z,99015.69
2023-03-31T05:42:49.055Z,99022.62
2023-03-31T05:45:16.676Z,99014.09
2023-03-31T05:47:44.403Z,99014.78
2023-03-31T05:50:14.547Z,99007.44
2023-03-31T05:52:42.392Z,99017.63
2023-03-31T05:55:10.482Z,99009.47
2023-03-31T05:57:38.484Z,99010.69
2023-03-31T06:00:06.869Z,99004.13
2023-03-31T06:02:35.225Z,99006.97
2023-03-31T06:05:03.016Z,98999.84
2023-03-31T06:07:30.698Z,99000.34
2023-03-31T06:09:58.602Z,98991.06
2023-03-31T06:12:26.276Z,98994.53
2023-03-31T06:14:53.942Z,98996.25
2023-03-31T06:17:21.877Z,99000.19
2023-03-31T06:19:49.555Z,98999.72
2023-03-31T06:22:17.196Z,99001.31
2023-03-31T06:24:45.104Z,99004.31
2023-03-31T06:27:12.740Z,99000.72
2023-03-31T06:29:40.412Z,98997.56
2023-03-31T06:32:08.463Z,99002.00
2023-03-31T06:34:36.197Z,98991.62
2023-03-31T06:37:03.814Z,98988.16
2023-03-31T06:39:31.893Z,98995.16
2023-03-31T06:41:59.559Z,98994.34
2023-03-31T06:44:27.286Z,98997.78
2023-03-31T06:46:55.333Z,98999.41
2023-03-31T06:49:23.102Z,99003.53
2023-03-31T06:51:50.806Z,99005.00
2023-03-31T06:54:18.769Z,99001.59
2023-03-31T06:56:46.434Z,98998.59
2023-03-31T06:59:14.176Z,98997.25
2023-03-31T07:01:42.262Z,98998.47
2023-03-31T07:04:10.130Z,98986.31
2023-03-31T07:06:37.801Z,98991.41
2023-03-31T07:09:05.917Z,98994.72
2023-03-31T07:11:34.104Z,98988.88
2023-03-31T07:14:01.866Z,98990.13
2023-03-31T07:16:29.823Z,98986.78
2023-03-31T07:18:57.557Z,98989.63
2023-03-31T07:21:25.968Z,98999.78
2023-03-31T07:23:53.849Z,98994.53
2023-03-31T07:26:21.534Z,98994.00
2023-03-31T07:28:49.318Z,98992.84
2023-03-31T07:31:17.640Z,98988.66
2023-03-31T07:33:45.256Z,98971.13
2023-03-31T07:36:14.165Z,98979.72
2023-03-31T07:38:43.847Z,98988.34
2023-03-31T07:41:16.960Z,98987.28
2023-03-31T07:43:45.414Z,98992.22
2023-03-31T07:46:24.578Z,98989.53
2023-03-31T07:48:53.330Z,98989.50
2023-03-31T07:51:24.241Z,98975.84
2023-03-31T07:53:52.907Z,98981.97
2023-03-31T07:56:22.379Z,98980.84
2023-03-31T07:58:50.734Z,98976.31
2023-03-31T08:01:20.957Z,98979.94
2023-03-31T08:03:49.033Z,98968.53
2023-03-31T08:06:22.237Z,98965.19
2023-03-31T08:08:50.729Z,98959.28
2023-03-31T08:11:19.036Z,98959.56
2023-03-31T08:13:47.244Z,98965.75
2023-03-31T08:16:15.257Z,98965.06
2023-03-31T08:18:42.900Z,98959.47
2023-03-31T08:21:10.699Z,98948.44
2023-03-31T08:23:38.773Z,98950.97
2023-03-31T08:26:10.440Z,98944.63
2023-03-31T08:28:39.152Z,98936.88
2023-03-31T08:31:08.346Z,98927.25
2023-03-31T08:33:36.809Z,98928.06
2023-03-31T08:36:06.502Z,98921.97
2023-03-31T08:38:38.934Z,98922.16
2023-03-31T08:41:17.514Z,98924.28
2023-03-31T08:43:46.500Z,98922.34
2023-03-31T08:46:15.714Z,98923.22
2023-03-31T08:48:50.954Z,98912.56
2023-03-31T08:51:22.832Z,98911.72
2023-03-31T08:53:59.950Z,98911.44
2023-03-31T08:56:28.262Z,98897.16
2023-03-31T08:58:56.255Z,98891.22
2023-03-31T09:01:30.449Z,98892.00
2023-03-31T09:04:22.193Z,98891.28
2023-03-31T09:07:08.324Z,98876.09
2023-03-31T09:09:38.969Z,98877.06
2023-03-31T09:12:11.872Z,98867.63
2023-03-31T09:15:02.335Z,98861.44
2023-03-31T09:17:34.023Z,98853.81
2023-03-31T09:20:28.363Z,98857.50
2023-03-31T09:23:08.735Z,98839.88
2023-03-31T09:25:38.755Z,98840.03
2023-03-31T09:28:14.071Z,98835.66
2023-03-31T09:30:42.554Z,98829.06
2023-03-31T09:33:19.227Z,98835.22
2023-03-31T09:35:47.915Z,98827.28
2023-03-31T09:38:17.469Z,98820.31
2023-03-31T09:40:45.512Z,98819.22
2023-03-31T09:43:18.709Z,98817.22
2023-03-31T09:45:57.705Z,98812.09
2023-03-31T09:48:34.400Z,98811.69
2023-03-31T09:51:07.524Z,98817.81
2023-03-31T09:53:48.684Z,98815.84
2023-03-31T09:56:44.549Z,98805.75
2023-03-31T09:59:18.469Z,98802.84
2023-03-31T10:01:47.968Z,98801.31
2023-03-31T10:04:48.608Z,98795.75
2023-03-31T10:07:21.425Z,98804.03
2023-03-31T10:09:49.602Z,98799.75
2023-03-31T10:12:20.330Z,98791.72
2023-03-31T10:14:49.769Z,98781.06
2023-03-31T10:17:22.934Z,98776.00
2023-03-31T10:19:52.912Z,98771.94
2023-03-31T10:22:20.643Z,98785.03
2023-03-31T10:24:50.018Z,98771.16
2023-03-31T10:27:29.391Z,98774.28
2023-03-31T10:30:01.640Z,98757.16
2023-03-31T10:32:31.143Z,98757.66
2023-03-31T10:35:07.938Z,98747.69
2023-03-31T10:37:36.795Z,98747.88
2023-03-31T10:40:17.525Z,98742.28
2023-03-31T10:42:47.061Z,98739.09
2023-03-31T10:45:36.475Z,98723.66
2023-03-31T10:48:06.327Z,98735.81
2023-03-31T10:50:36.580Z,98732.62
2023-03-31T10:53:15.441Z,98728.50
2023-03-31T10:56:11.271Z,98725.31
2023-03-31T10:59:07.511Z,98728.66
2023-03-31T11:01:41.752Z,98733.50
2023-03-31T11:04:21.493Z,98732.53
2023-03-31T11:07:15.714Z,98722.25
2023-03-31T11:10:11.698Z,98732.72
2023-03-31T11:13:07.319Z,98719.78
2023-03-31T11:16:07.422Z,98715.75
2023-03-31T11:18:46.447Z,98715.00
2023-03-31T11:21:32.211Z,98706.66
2023-03-31T11:24:22.971Z,98699.28
2023-03-31T11:27:05.420Z,98703.75
2023-03-31T11:29:52.761Z,98688.13
2023-03-31T11:32:48.512Z,98694.03
2023-03-31T11:35:20.012Z,98684.81
2023-03-31T11:37:53.570Z,98682.31
2023-03-31T11:40:43.554Z,98675.78
2023-03-31T11:43:21.338Z,98672.81
2023-03-31T11:46:06.654Z,98657.03
2023-03-31T11:48:43.727Z,98648.38
2023-03-31T11:51:25.842Z,98636.13
2023-03-31T11:53:57.247Z,98634.69
2023-03-31T11:56:37.724Z,98615.38
2023-03-31T11:59:06.573Z,98612.72
2023-03-31T12:01:51.364Z,98596.16
2023-03-31T12:04:28.437Z,98596.41
2023-03-31T12:07:04.134Z,98589.16
2023-03-31T12:09:54.304Z,98585.75
2023-03-31T12:12:29.806Z,98586.44
2023-03-31T12:15:10.492Z,98581.56
2023-03-31T12:17:39.046Z,98573.66
2023-03-31T12:20:25.636Z,98573.28
2023-03-31T12:22:54.648Z,98568.03
2023-03-31T12:25:23.202Z,98567.84
2023-03-31T12:27:50.970Z,98563.28
2023-03-31T12:30:32.556Z,98563.41
2023-03-31T12:33:07.793Z,98551.69
2023-03-31T12:35:43.239Z,98543.94
2023-03-31T12:38:29.772Z,98543.09
2023-03-31T12:41:01.538Z,98537.56
2023-03-31T12:43:54.502Z,98541.84
2023-03-31T12:46:57.276Z,98537.97
2023-03-31T12:49:33.260Z,98538.16
2023-03-31T12:52:04.483Z,98527.03
2023-03-31T12:54:47.439Z,98523.41
2023-03-31T12:57:20.968Z,98518.59
2023-03-31T13:00:26.569Z,98508.16
2023-03-31T13:03:33.432Z,98510.31
2023-03-31T13:06:02.576Z,98498.91
2023-03-31T13:08:49.708Z,98489.12
2023-03-31T13:11:23.300Z,98479.97
2023-03-31T13:14:13.940Z,98485.59
2023-03-31T13:16:44.094Z,98492.72
2023-03-31T13:19:23.537Z,98479.69
2023-03-31T13:21:59.072Z,98473.94
2023-03-31T13:24:28.256Z,98474.91
2023-03-31T13:26:57.519Z,98464.84
2023-03-31T13:29:42.713Z,98452.78
2023-03-31T13:32:26.673Z,98453.91
2023-03-31T13:35:14.728Z,98445.38
2023-03-31T13:37:53.497Z,98441.44
2023-03-31T13:40:21.313Z,98441.94
2023-03-31T13:43:40.194Z,98428.69
2023-03-31T13:46:16.920Z,98425.91
2023-03-31T13:49:22.979Z,98423.97
2023-03-31T13:51:58.011Z,98421.88
2023-03-31T13:54:50.435Z,98413.81
2023-03-31T13:57:33.316Z,98399.00
2023-03-31T14:00:25.675Z,98393.41
2023-03-31T14:03:06.487Z,98385.56
2023-03-31T14:05:37.561Z,98378.94
2023-03-31T14:08:10.452Z,98378.50
2023-03-31T14:10:39.635Z,98373.91
2023-03-31T14:13:18.211Z,98367.69
2023-03-31T14:15:54.852Z,98360.06
2023-03-31T14:18:27.371Z,98364.47
2023-03-31T14:21:14.123Z,98357.97
2023-03-31T14:24:08.581Z,98352.16
2023-03-31T14:27:09.793Z,98353.16
2023-03-31T14:30:10.691Z,98342.22
2023-03-31T14:32:57.110Z,98340.72
2023-03-31T14:35:31.173Z,98340.41
2023-03-31T14:38:00.890Z,98343.25
2023-03-31T14:40:29.048Z,98334.41
2023-03-31T14:42:59.718Z,98323.87
2023-03-31T14:45:31.059Z,98321.59
2023-03-31T14:48:13.886Z,98322.38
2023-03-31T14:50:46.380Z,98304.88
2023-03-31T14:53:15.930Z,98306.81
2023-03-31T14:55:58.166Z,98308.78
2023-03-31T14:58:37.143Z,98303.78
2023-03-31T15:01:09.139Z,98299.16
2023-03-31T15:03:40.205Z,98292.94
2023-03-31T15:06:11.070Z,98290.66
2023-03-31T15:08:39.241Z,98290.69
2023-03-31T15:11:20.784Z,98284.34
2023-03-31T15:14:03.503Z,98286.66
2023-03-31T15:16:42.069Z,98283.94
2023-03-31T15:19:16.453Z,98277.00
2023-03-31T15:21:44.508Z,98276.66
2023-03-31T15:24:13.583Z,98276.56
2023-03-31T15:26:46.617Z,98282.22
2023-03-31T15:29:21.273Z,98285.09
2023-03-31T15:31:49.663Z,98275.31
2023-03-31T15:34:26.010Z,98270.66
2023-03-31T15:36:55.330Z,98280.09
2023-03-31T15:39:27.450Z,98269.72
2023-03-31T15:41:56.370Z,98270.03
2023-03-31T15:44:39.228Z,98269.84
2023-03-31T15:47:17.668Z,98268.75
2023-03-31T15:50:03.496Z,98261.56
2023-03-31T15:52:36.370Z,98245.66
2023-03-31T15:55:25.612Z,98248.63
2023-03-31T15:57:55.135Z,98247.25
2023-03-31T16:00:31.611Z,98241.69
2023-03-31T16:03:05.265Z,98225.66
2023-03-31T16:05:53.567Z,98221.16
2023-03-31T16:08:47.398Z,98220.22
2023-03-31T16:11:28.393Z,98216.53
2023-03-31T16:14:01.552Z,98212.16
2023-03-31T16:16:29.837Z,98198.66
2023-03-31T16:19:08.020Z,98201.19
2023-03-31T16:21:42.255Z,98194.66
2023-03-31T16:24:10.457Z,98194.87
2023-03-31T16:26:38.308Z,98201.50
2023-03-31T16:29:06.103Z,98195.31
2023-03-31T16:31:37.176Z,98201.59
2023-03-31T16:34:08.338Z,98197.16
2023-03-31T16:36:36.732Z,98196.50
2023-03-31T16:39:05.480Z,98202.87
2023-03-31T16:41:34.549Z,98204.78
2023-03-31T16:44:02.669Z,98217.19
2023-03-31T16:46:31.798Z,98215.44
2023-03-31T16:48:59.782Z,98220.59
2023-03-31T16:51:28.029Z,98230.03
2023-03-31T16:53:58.343Z,98237.34
2023-03-31T16:56:27.353Z,98242.63
2023-03-31T16:58:55.448Z,98246.16
2023-03-31T17:01:23.359Z,98249.31
2023-03-31T17:03:51.964Z,98243.38
2023-03-31T17:06:19.638Z,98250.72
2023-03-31T17:08:47.751Z,98245.47
2023-03-31T17:11:15.664Z,98252.31
2023-03-31T17:13:43.691Z,98241.28
2023-03-31T17:18:44.605Z,98252.19
2023-03-31T17:21:13.887Z,98250.31
2023-03-31T17:23:41.992Z,98246.59
2023-03-31T17:26:10.789Z,98258.56
2023-03-31T17:28:38.914Z,98264.16
2023-03-31T17:31:17.904Z,98259.00
2023-03-31T17:33:46.310Z,98260.84
2023-03-31T17:36:14.639Z,98261.09
2023-03-31T17:38:42.338Z,98259.84
2023-03-31T17:41:13.374Z,98264.38
2023-03-31T17:43:45.350Z,98268.47
2023-03-31T17:46:14.011Z,98264.53
2023-03-31T17:48:42.307Z,98252.94
2023-03-31T17:51:15.281Z,98247.81
2023-03-31T17:53:44.213Z,98245.41
2023-03-31T17:56:12.882Z,98248.53
2023-03-31T17:58:41.021Z,98239.87
2023-03-31T18:01:10.656Z,98246.09
2023-03-31T18:03:39.193Z,98230.78
2023-03-31T18:06:09.431Z,98226.66
2023-03-31T18:08:37.640Z,98235.81
2023-03-31T18:11:07.228Z,98236.09
2023-03-31T18:13:35.921Z,98239.28
2023-03-31T18:16:04.241Z,98235.63
2023-03-31T18:18:32.296Z,98223.25
2023-03-31T18:21:04.560Z,98228.28
2023-03-31T18:23:32.974Z,98237.16
2023-03-31T18:26:01.419Z,98241.34
2023-03-31T18:28:29.437Z,98240.25
2023-03-31T18:30:57.747Z,98243.91
2023-03-31T18:33:26.168Z,98242.22
2023-03-31T18:35:54.096Z,98252.94
2023-03-31T18:38:22.118Z,98244.38
2023-03-31T18:40:50.886Z,98241.25
2023-03-31T18:43:19.978Z,98241.16
2023-03-31T18:45:50.142Z,98230.56
2023-03-31T18:48:18.406Z,98234.84
2023-03-31T18:50:46.183Z,98224.47
2023-03-31T18:53:17.384Z,98225.09
2023-03-31T18:55:52.855Z,98220.53
2023-03-31T18:58:21.294Z,98227.47
2023-03-31T19:00:49.544Z,98226.03
2023-03-31T19:03:17.485Z,98215.47
2023-03-31T19:05:45.760Z,98216.56
2023-03-31T19:08:16.871Z,98212.56
2023-03-31T19:10:44.983Z,98215.59
2023-03-31T19:13:15.349Z,98223.41
2023-03-31T19:15:43.373Z,98211.06
2023-03-31T19:18:14.222Z,98210.37
2023-03-31T19:20:46.531Z,98215.34
2023-03-31T19:23:14.527Z,98212.13
2023-03-31T19:25:43.018Z,98211.50
2023-03-31T19:28:17.622Z,98203.94
2023-03-31T19:30:48.412Z,98205.28
2023-03-31T19:33:19.666Z,98207.44
2023-03-31T19:35:48.734Z,98199.25
2023-03-31T19:38:18.217Z,98204.50
2023-03-31T19:40:46.292Z,98207.53
2023-03-31T19:43:19.719Z,98202.31
2023-03-31T19:45:48.338Z,98205.62
2023-03-31T19:48:18.072Z,98205.44
2023-03-31T19:50:47.215Z,98200.03
2023-03-31T19:53:14.941Z,98199.91
2023-03-31T19:55:43.186Z,98201.84
2023-03-31T19:58:11.113Z,98195.59
2023-03-31T20:00:38.955Z,98196.16
2023-03-31T20:03:07.138Z,98192.88
2023-03-31T20:05:35.568Z,98198.03
2023-03-31T20:08:03.534Z,98191.78
2023-03-31T20:10:31.815Z,98191.16
2023-03-31T20:13:00.044Z,98186.19
2023-03-31T20:15:28.451Z,98177.91
2023-03-31T20:17:56.529Z,98179.91
2023-03-31T20:20:24.637Z,98169.66
2023-03-31T20:22:52.520Z,98175.91
2023-03-31T20:25:20.776Z,98171.31
2023-03-31T20:27:48.703Z,98183.12
2023-03-31T20:30:16.753Z,98178.00
2023-03-31T20:32:45.058Z,98180.06
2023-03-31T20:35:13.200Z,98167.75
2023-03-31T20:37:40.927Z,98172.09
2023-03-31T20:40:11.087Z,98161.78
2023-03-31T20:42:38.932Z,98153.94
2023-03-31T20:45:07.338Z,98152.81
2023-03-31T20:47:35.475Z,98153.34
2023-03-31T20:50:03.279Z,98148.50
2023-03-31T20:52:30.926Z,98149.06
2023-03-31T20:54:59.370Z,98144.16
2023-03-31T20:57:27.030Z,98138.00
2023-03-31T20:59:54.750Z,98135.09
2023-03-31T21:05:08.823Z,98137.44
2023-03-31T21:07:41.010Z,98140.69
2023-03-31T21:13:24.153Z,98139.34
2023-03-31T21:15:52.282Z,98139.69
2023-03-31T21:18:20.254Z,98147.19
2023-03-31T21:20:55.566Z,98156.91
2023-03-31T21:23:25.022Z,98147.84
2023-03-31T21:25:55.145Z,98148.41
2023-03-31T21:28:25.700Z,98149.16
2023-03-31T21:30:55.419Z,98145.50
2023-03-31T21:33:24.499Z,98146.72
2023-03-31T21:35:52.763Z,98134.84
2023-03-31T21:38:20.553Z,98137.00
2023-03-31T21:40:49.228Z,98134.75
2023-03-31T21:43:17.061Z,98139.44
2023-03-31T21:45:44.981Z,98131.63
2023-03-31T21:48:12.999Z,98137.09
2023-03-31T21:50:41.315Z,98140.87
2023-03-31T21:53:10.883Z,98132.28
2023-03-31T21:55:38.822Z,98137.34
2023-03-31T21:58:06.419Z,98147.16
2023-03-31T22:00:34.186Z,98137.97
2023-03-31T22:03:22.015Z,98146.84
2023-03-31T22:05:57.164Z,98145.84
2023-03-31T22:08:25.863Z,98146.16
2023-03-31T22:10:54.421Z,98149.84
2023-03-31T22:13:22.913Z,98152.97
2023-03-31T22:15:51.354Z,98158.69
2023-03-31T22:18:19.525Z,98166.97
2023-03-31T22:20:47.662Z,98160.72
2023-03-31T22:23:15.981Z,98157.37
2023-03-31T22:25:43.573Z,98164.78
2023-03-31T22:28:11.335Z,98158.63
2023-03-31T22:30:39.395Z,98166.78
2023-03-31T22:33:07.179Z,98162.22
2023-03-31T22:35:35.417Z,98166.50
2023-03-31T22:38:04.466Z,98167.28
2023-03-31T22:40:34.807Z,98168.50
2023-03-31T22:43:03.133Z,98158.03
2023-03-31T22:45:31.027Z,98153.09
2023-03-31T22:47:59.069Z,98155.66
2023-03-31T22:50:27.005Z,98155.19
2023-03-31T22:52:56.651Z,98138.75
2023-03-31T22:55:28.308Z,98141.44
2023-03-31T22:57:56.361Z,98155.53
2023-03-31T23:00:24.045Z,98148.56
2023-03-31T23:02:52.168Z,98143.97
2023-03-31T23:05:20.352Z,98136.75
2023-03-31T23:07:48.092Z,98147.75
2023-03-31T23:10:16.175Z,98143.63
2023-03-31T23:12:44.148Z,98131.31
2023-03-31T23:15:12.010Z,98139.44
2023-03-31T23:17:39.808Z,98137.47
2023-03-31T23:20:08.136Z,98147.94
2023-03-31T23:22:36.266Z,98130.06
2023-03-31T23:25:04.550Z,98118.06
2023-03-31T23:27:32.502Z,98126.53
2023-03-31T23:30:00.186Z,98116.53
2023-03-31T23:32:27.942Z,98109.34
2023-03-31T23:34:55.933Z,98111.81
2023-03-31T23:37:23.622Z,98113.91
2023-03-31T23:39:51.295Z,98110.72
2023-03-31T23:42:19.236Z,98114.31
2023-03-31T23:44:46.830Z,98112.88
2023-03-31T23:47:14.431Z,98126.00
2023-03-31T23:49:42.329Z,98122.62
2023-03-31T23:52:10.075Z,98126.06
2023-03-31T23:54:37.638Z,98132.41
2023-03-31T23:57:05.684Z,98131.75
2023-03-31T23:59:33.646Z,98132.34
